sensor_id;sensor_type;location;lat;lon;timestamp;pressure;altitude;pressure_sealevel;temperature;humidity
51081;BME280;37130;55.670;37.596;2022-09-24T00:00:03;98542.06;;;10.82;79.57
51081;BME280;37130;55.670;37.596;2022-09-24T00:02:31;98535.16;;;10.80;79.66
51081;BME280;37130;55.670;37.596;2022-09-24T00:04:58;98533.66;;;10.75;80.21
51081;BME280;37130;55.670;37.596;2022-09-24T00:07:25;98527.22;;;10.80;80.40
51081;BME280;37130;55.670;37.596;2022-09-24T00:09:53;98515.94;;;10.76;80.39
51081;BME280;37130;55.670;37.596;2022-09-24T00:12:20;98506.31;;;10.75;80.07
51081;BME280;37130;55.670;37.596;2022-09-24T00:14:48;98501.66;;;10.79;80.35
51081;BME280;37130;55.670;37.596;2022-09-24T00:17:15;98490.84;;;10.82;80.24
51081;BME280;37130;55.670;37.596;2022-09-24T00:19:43;98481.31;;;10.79;80.32
51081;BME280;37130;55.670;37.596;2022-09-24T00:22:10;98487.78;;;10.75;80.43
51081;BME280;37130;55.670;37.596;2022-09-24T00:24:38;98476.34;;;10.74;80.68
51081;BME280;37130;55.670;37.596;2022-09-24T00:27:23;98472.75;;;10.75;80.62
51081;BME280;37130;55.670;37.596;2022-09-24T00:29:51;98452.50;;;10.74;80.73
51081;BME280;37130;55.670;37.596;2022-09-24T00:32:19;98456.00;;;10.75;80.53
51081;BME280;37130;55.670;37.596;2022-09-24T00:34:48;98447.41;;;10.71;80.91
51081;BME280;37130;55.670;37.596;2022-09-24T00:37:18;98444.03;;;10.69;81.17
51081;BME280;37130;55.670;37.596;2022-09-24T00:39:45;98435.25;;;10.69;81.26
51081;BME280;37130;55.670;37.596;2022-09-24T00:42:13;98413.94;;;10.70;81.40
51081;BME280;37130;55.670;37.596;2022-09-24T00:47:12;98405.34;;;10.67;80.87
51081;BME280;37130;55.670;37.596;2022-09-24T00:49:39;98406.28;;;10.66;81.35
51081;BME280;37130;55.670;37.596;2022-09-24T00:52:07;98396.56;;;10.66;81.26
51081;BME280;37130;55.670;37.596;2022-09-24T00:54:35;98394.66;;;10.68;81.66
51081;BME280;37130;55.670;37.596;2022-09-24T00:57:03;98391.06;;;10.69;81.15
51081;BME280;37130;55.670;37.596;2022-09-24T00:59:30;98380.47;;;10.69;81.49
51081;BME280;37130;55.670;37.596;2022-09-24T01:01:57;98382.06;;;10.72;81.27
51081;BME280;37130;55.670;37.596;2022-09-24T01:04:26;98377.63;;;10.72;81.27
51081;BME280;37130;55.670;37.596;2022-09-24T01:06:54;98374.97;;;10.72;81.25
51081;BME280;37130;55.670;37.596;2022-09-24T01:09:23;98370.72;;;10.70;81.49
51081;BME280;37130;55.670;37.596;2022-09-24T01:22:51;98328.97;;;10.73;81.24
51081;BME280;37130;55.670;37.596;2022-09-24T01:28:16;98321.25;;;10.70;81.25
51081;BME280;37130;55.670;37.596;2022-09-24T01:30:49;98314.59;;;10.65;81.52
51081;BME280;37130;55.670;37.596;2022-09-24T01:33:21;98321.69;;;10.64;81.46
51081;BME280;37130;55.670;37.596;2022-09-24T01:35:52;98306.03;;;10.61;81.88
51081;BME280;37130;55.670;37.596;2022-09-24T01:38:22;98301.25;;;10.53;82.26
51081;BME280;37130;55.670;37.596;2022-09-24T01:40:51;98300.50;;;10.51;82.10
51081;BME280;37130;55.670;37.596;2022-09-24T01:43:21;98296.13;;;10.50;81.96
51081;BME280;37130;55.670;37.596;2022-09-24T01:45:50;98293.50;;;10.50;82.63
51081;BME280;37130;55.670;37.596;2022-09-24T01:48:18;98294.34;;;10.51;82.14
51081;BME280;37130;55.670;37.596;2022-09-24T01:50:49;98292.88;;;10.47;82.12
51081;BME280;37130;55.670;37.596;2022-09-24T01:53:20;98282.69;;;10.41;82.33
51081;BME280;37130;55.670;37.596;2022-09-24T01:55:50;98286.09;;;10.43;82.67
51081;BME280;37130;55.670;37.596;2022-09-24T01:58:20;98271.28;;;10.40;83.06
51081;BME280;37130;55.670;37.596;2022-09-24T02:00:50;98269.34;;;10.42;83.13
51081;BME280;37130;55.670;37.596;2022-09-24T02:03:21;98273.59;;;10.45;83.08
51081;BME280;37130;55.670;37.596;2022-09-24T02:08:21;98256.97;;;10.43;83.15
51081;BME280;37130;55.670;37.596;2022-09-24T02:13:30;98246.72;;;10.38;82.68
51081;BME280;37130;55.670;37.596;2022-09-24T02:16:01;98238.22;;;10.33;82.93
51081;BME280;37130;55.670;37.596;2022-09-24T02:18:32;98232.41;;;10.28;83.57
51081;BME280;37130;55.670;37.596;2022-09-24T02:21:02;98227.28;;;10.25;84.03
51081;BME280;37130;55.670;37.596;2022-09-24T02:23:30;98231.00;;;10.22;83.44
51081;BME280;37130;55.670;37.596;2022-09-24T02:25:59;98226.75;;;10.20;83.80
51081;BME280;37130;55.670;37.596;2022-09-24T02:28:30;98225.25;;;10.16;84.34
51081;BME280;37130;55.670;37.596;2022-09-24T02:31:33;98224.22;;;10.18;85.15
51081;BME280;37130;55.670;37.596;2022-09-24T02:33:53;98223.16;;;10.21;85.82
51081;BME280;37130;55.670;37.596;2022-09-24T02:36:41;98219.38;;;10.25;85.90
51081;BME280;37130;55.670;37.596;2022-09-24T02:39:09;98207.06;;;10.24;86.38
51081;BME280;37130;55.670;37.596;2022-09-24T02:41:36;98212.47;;;10.22;86.93
51081;BME280;37130;55.670;37.596;2022-09-24T02:44:04;98198.41;;;10.22;88.21
51081;BME280;37130;55.670;37.596;2022-09-24T02:46:31;98194.59;;;10.26;88.93
51081;BME280;37130;55.670;37.596;2022-09-24T02:48:58;98192.25;;;10.21;89.59
51081;BME280;37130;55.670;37.596;2022-09-24T02:51:26;98186.78;;;10.24;90.67
51081;BME280;37130;55.670;37.596;2022-09-24T02:53:53;98179.75;;;10.23;91.16
51081;BME280;37130;55.670;37.596;2022-09-24T02:56:20;98186.84;;;10.23;91.52
51081;BME280;37130;55.670;37.596;2022-09-24T02:58:48;98184.97;;;10.25;92.02
51081;BME280;37130;55.670;37.596;2022-09-24T03:01:15;98180.72;;;10.22;92.51
51081;BME280;37130;55.670;37.596;2022-09-24T03:03:43;98186.84;;;10.23;93.40
51081;BME280;37130;55.670;37.596;2022-09-24T03:06:10;98182.41;;;10.23;93.79
51081;BME280;37130;55.670;37.596;2022-09-24T03:08:41;98170.91;;;10.24;94.03
51081;BME280;37130;55.670;37.596;2022-09-24T03:11:08;98175.03;;;10.28;94.81
51081;BME280;37130;55.670;37.596;2022-09-24T03:13:43;98171.72;;;10.25;94.38
51081;BME280;37130;55.670;37.596;2022-09-24T03:16:10;98178.59;;;10.15;94.04
51081;BME280;37130;55.670;37.596;2022-09-24T03:18:38;98172.13;;;10.06;94.57
51081;BME280;37130;55.670;37.596;2022-09-24T03:21:07;98184.63;;;10.04;95.22
51081;BME280;37130;55.670;37.596;2022-09-24T03:23:36;98188.44;;;10.00;95.62
51081;BME280;37130;55.670;37.596;2022-09-24T03:26:03;98182.50;;;9.96;95.85
51081;BME280;37130;55.670;37.596;2022-09-24T03:28:31;98175.84;;;9.91;96.89
51081;BME280;37130;55.670;37.596;2022-09-24T03:30:58;98177.94;;;9.85;96.50
51081;BME280;37130;55.670;37.596;2022-09-24T03:35:59;98156.56;;;9.76;97.21
51081;BME280;37130;55.670;37.596;2022-09-24T03:38:27;98166.81;;;9.68;97.52
51081;BME280;37130;55.670;37.596;2022-09-24T03:40:55;98164.91;;;9.70;97.50
51081;BME280;37130;55.670;37.596;2022-09-24T03:43:23;98158.66;;;9.71;98.03
51081;BME280;37130;55.670;37.596;2022-09-24T03:45:50;98156.13;;;9.69;97.79
51081;BME280;37130;55.670;37.596;2022-09-24T03:48:18;98153.91;;;9.63;98.54
51081;BME280;37130;55.670;37.596;2022-09-24T03:50:46;98135.69;;;9.58;97.97
51081;BME280;37130;55.670;37.596;2022-09-24T03:53:13;98148.63;;;9.63;98.64
51081;BME280;37130;55.670;37.596;2022-09-24T03:55:42;98136.97;;;9.65;98.78
51081;BME280;37130;55.670;37.596;2022-09-24T03:58:10;98132.00;;;9.61;99.06
51081;BME280;37130;55.670;37.596;2022-09-24T04:00:38;98126.00;;;9.59;99.33
51081;BME280;37130;55.670;37.596;2022-09-24T04:03:07;98123.75;;;9.53;99.53
51081;BME280;37130;55.670;37.596;2022-09-24T04:05:34;98116.88;;;9.50;99.56
51081;BME280;37130;55.670;37.596;2022-09-24T04:08:02;98121.84;;;9.55;100.00
51081;BME280;37130;55.670;37.596;2022-09-24T04:10:32;98111.19;;;9.56;99.70
51081;BME280;37130;55.670;37.596;2022-09-24T04:12:59;98115.44;;;9.59;100.00
51081;BME280;37130;55.670;37.596;2022-09-24T04:15:27;98106.53;;;9.60;99.99
51081;BME280;37130;55.670;37.596;2022-09-24T04:17:57;98105.03;;;9.56;99.86
51081;BME280;37130;55.670;37.596;2022-09-24T04:20:26;98092.56;;;9.58;99.54
51081;BME280;37130;55.670;37.596;2022-09-24T04:22:54;98091.50;;;9.60;99.69
51081;BME280;37130;55.670;37.596;2022-09-24T04:25:22;98088.03;;;9.60;100.00
51081;BME280;37130;55.670;37.596;2022-09-24T04:27:57;98086.34;;;9.59;99.68
51081;BME280;37130;55.670;37.596;2022-09-24T04:30:25;98080.31;;;9.57;100.00
51081;BME280;37130;55.670;37.596;2022-09-24T04:32:52;98075.97;;;9.56;100.00
51081;BME280;37130;55.670;37.596;2022-09-24T04:35:21;98064.56;;;9.55;100.00
51081;BME280;37130;55.670;37.596;2022-09-24T04:37:48;98060.09;;;9.56;100.00
51081;BME280;37130;55.670;37.596;2022-09-24T04:40:16;98060.75;;;9.59;100.00
51081;BME280;37130;55.670;37.596;2022-09-24T04:42:44;98046.56;;;9.60;100.00
51081;BME280;37130;55.670;37.596;2022-09-24T04:45:13;98048.06;;;9.64;100.00
51081;BME280;37130;55.670;37.596;2022-09-24T04:47:41;98045.00;;;9.71;100.00
51081;BME280;37130;55.670;37.596;2022-09-24T04:50:08;98037.69;;;9.74;100.00
51081;BME280;37130;55.670;37.596;2022-09-24T04:52:37;98034.84;;;9.77;100.00
51081;BME280;37130;55.670;37.596;2022-09-24T04:55:05;98020.59;;;9.80;100.00
51081;BME280;37130;55.670;37.596;2022-09-24T04:57:32;98025.22;;;9.89;100.00
51081;BME280;37130;55.670;37.596;2022-09-24T05:00:03;98018.13;;;9.90;100.00
51081;BME280;37130;55.670;37.596;2022-09-24T05:02:30;98013.78;;;9.88;100.00
51081;BME280;37130;55.670;37.596;2022-09-24T05:04:58;98005.63;;;9.92;100.00
51081;BME280;37130;55.670;37.596;2022-09-24T05:07:25;98005.41;;;9.95;100.00
51081;BME280;37130;55.670;37.596;2022-09-24T05:09:53;97998.97;;;9.99;100.00
51081;BME280;37130;55.670;37.596;2022-09-24T05:12:20;97988.63;;;9.96;100.00
51081;BME280;37130;55.670;37.596;2022-09-24T05:14:47;97994.09;;;9.93;100.00
51081;BME280;37130;55.670;37.596;2022-09-24T05:17:15;97979.19;;;9.92;100.00
51081;BME280;37130;55.670;37.596;2022-09-24T05:19:42;97978.22;;;9.93;100.00
51081;BME280;37130;55.670;37.596;2022-09-24T05:22:09;97976.22;;;9.96;100.00
51081;BME280;37130;55.670;37.596;2022-09-24T05:24:37;97966.25;;;10.00;100.00
51081;BME280;37130;55.670;37.596;2022-09-24T05:27:05;97961.19;;;9.97;100.00
51081;BME280;37130;55.670;37.596;2022-09-24T05:29:37;97956.00;;;9.95;100.00
51081;BME280;37130;55.670;37.596;2022-09-24T05:32:12;97950.94;;;9.92;100.00
51081;BME280;37130;55.670;37.596;2022-09-24T05:34:41;97937.34;;;9.85;100.00
51081;BME280;37130;55.670;37.596;2022-09-24T05:37:09;97932.97;;;9.84;100.00
51081;BME280;37130;55.670;37.596;2022-09-24T05:39:37;97927.91;;;9.81;100.00
51081;BME280;37130;55.670;37.596;2022-09-24T05:42:04;97931.19;;;9.85;100.00
51081;BME280;37130;55.670;37.596;2022-09-24T05:44:33;97930.97;;;9.88;100.00
51081;BME280;37130;55.670;37.596;2022-09-24T05:47:01;97919.44;;;9.89;100.00
51081;BME280;37130;55.670;37.596;2022-09-24T05:49:28;97916.47;;;9.94;100.00
51081;BME280;37130;55.670;37.596;2022-09-24T05:51:56;97909.88;;;9.99;100.00
51081;BME280;37130;55.670;37.596;2022-09-24T05:54:23;97904.16;;;10.05;100.00
51081;BME280;37130;55.670;37.596;2022-09-24T05:56:51;97902.13;;;10.09;100.00
51081;BME280;37130;55.670;37.596;2022-09-24T05:59:19;97906.22;;;10.13;100.00
51081;BME280;37130;55.670;37.596;2022-09-24T06:01:46;97907.94;;;10.14;100.00
51081;BME280;37130;55.670;37.596;2022-09-24T06:04:15;97894.91;;;10.11;100.00
51081;BME280;37130;55.670;37.596;2022-09-24T06:06:43;97890.34;;;10.13;100.00
51081;BME280;37130;55.670;37.596;2022-09-24T06:09:10;97885.34;;;10.21;100.00
51081;BME280;37130;55.670;37.596;2022-09-24T06:11:38;97895.00;;;10.22;100.00
51081;BME280;37130;55.670;37.596;2022-09-24T06:14:06;97879.22;;;10.21;100.00
51081;BME280;37130;55.670;37.596;2022-09-24T06:16:35;97884.63;;;10.19;100.00
51081;BME280;37130;55.670;37.596;2022-09-24T06:19:02;97874.63;;;10.12;100.00
51081;BME280;37130;55.670;37.596;2022-09-24T06:21:30;97876.06;;;10.16;100.00
51081;BME280;37130;55.670;37.596;2022-09-24T06:23:57;97869.94;;;10.15;100.00
51081;BME280;37130;55.670;37.596;2022-09-24T06:26:24;97873.56;;;10.14;100.00
51081;BME280;37130;55.670;37.596;2022-09-24T06:28:53;97872.81;;;10.12;100.00
51081;BME280;37130;55.670;37.596;2022-09-24T06:31:20;97873.97;;;10.08;100.00
51081;BME280;37130;55.670;37.596;2022-09-24T06:33:48;97867.81;;;9.96;100.00
51081;BME280;37130;55.670;37.596;2022-09-24T06:36:15;97871.50;;;9.94;100.00
51081;BME280;37130;55.670;37.596;2022-09-24T06:38:43;97867.06;;;9.94;100.00
51081;BME280;37130;55.670;37.596;2022-09-24T06:41:11;97876.94;;;9.79;100.00
51081;BME280;37130;55.670;37.596;2022-09-24T06:43:38;97864.22;;;9.84;100.00
51081;BME280;37130;55.670;37.596;2022-09-24T06:46:06;97865.22;;;9.83;100.00
51081;BME280;37130;55.670;37.596;2022-09-24T06:48:33;97867.09;;;9.81;100.00
51081;BME280;37130;55.670;37.596;2022-09-24T06:51:04;97865.72;;;9.88;100.00
51081;BME280;37130;55.670;37.596;2022-09-24T06:53:31;97862.09;;;9.90;100.00
51081;BME280;37130;55.670;37.596;2022-09-24T06:55:59;97860.25;;;9.79;100.00
51081;BME280;37130;55.670;37.596;2022-09-24T06:58:26;97858.66;;;9.76;100.00
51081;BME280;37130;55.670;37.596;2022-09-24T07:00:54;97855.38;;;9.85;100.00
51081;BME280;37130;55.670;37.596;2022-09-24T07:03:25;97848.56;;;9.94;100.00
51081;BME280;37130;55.670;37.596;2022-09-24T07:05:53;97848.97;;;10.01;100.00
51081;BME280;37130;55.670;37.596;2022-09-24T07:08:21;97848.84;;;10.02;100.00
51081;BME280;37130;55.670;37.596;2022-09-24T07:10:48;97840.78;;;10.04;100.00
51081;BME280;37130;55.670;37.596;2022-09-24T07:13:16;97844.84;;;9.97;100.00
51081;BME280;37130;55.670;37.596;2022-09-24T07:15:43;97842.72;;;10.02;100.00
51081;BME280;37130;55.670;37.596;2022-09-24T07:18:11;97838.47;;;9.99;100.00
51081;BME280;37130;55.670;37.596;2022-09-24T07:20:39;97840.38;;;9.97;100.00
51081;BME280;37130;55.670;37.596;2022-09-24T07:23:07;97834.09;;;9.87;100.00
51081;BME280;37130;55.670;37.596;2022-09-24T07:25:34;97840.13;;;9.89;100.00
51081;BME280;37130;55.670;37.596;2022-09-24T07:28:06;97827.50;;;9.93;100.00
51081;BME280;37130;55.670;37.596;2022-09-24T07:30:34;97833.44;;;9.96;100.00
51081;BME280;37130;55.670;37.596;2022-09-24T07:33:02;97829.31;;;9.92;100.00
51081;BME280;37130;55.670;37.596;2022-09-24T07:35:29;97826.44;;;9.95;100.00
51081;BME280;37130;55.670;37.596;2022-09-24T07:40:25;97820.56;;;10.03;100.00
51081;BME280;37130;55.670;37.596;2022-09-24T07:42:53;97815.06;;;10.06;100.00
51081;BME280;37130;55.670;37.596;2022-09-24T07:45:21;97814.34;;;10.04;100.00
51081;BME280;37130;55.670;37.596;2022-09-24T07:47:58;97806.84;;;9.98;100.00
51081;BME280;37130;55.670;37.596;2022-09-24T07:50:27;97808.06;;;9.94;100.00
51081;BME280;37130;55.670;37.596;2022-09-24T07:52:54;97810.38;;;9.98;100.00
51081;BME280;37130;55.670;37.596;2022-09-24T07:55:21;97807.09;;;9.95;100.00
51081;BME280;37130;55.670;37.596;2022-09-24T07:57:50;97802.94;;;10.03;100.00
51081;BME280;37130;55.670;37.596;2022-09-24T08:00:18;97800.06;;;10.06;100.00
51081;BME280;37130;55.670;37.596;2022-09-24T08:02:45;97796.94;;;10.13;100.00
51081;BME280;37130;55.670;37.596;2022-09-24T08:05:13;97801.91;;;10.17;100.00
51081;BME280;37130;55.670;37.596;2022-09-24T08:07:41;97797.44;;;10.18;100.00
51081;BME280;37130;55.670;37.596;2022-09-24T08:10:09;97790.97;;;10.22;100.00
51081;BME280;37130;55.670;37.596;2022-09-24T08:12:37;97789.47;;;10.30;100.00
51081;BME280;37130;55.670;37.596;2022-09-24T08:15:04;97781.38;;;10.32;100.00
51081;BME280;37130;55.670;37.596;2022-09-24T08:17:48;97787.41;;;10.34;100.00
51081;BME280;37130;55.670;37.596;2022-09-24T08:20:16;97778.53;;;10.35;100.00
51081;BME280;37130;55.670;37.596;2022-09-24T08:22:44;97782.97;;;10.35;100.00
51081;BME280;37130;55.670;37.596;2022-09-24T08:25:11;97781.28;;;10.34;100.00
51081;BME280;37130;55.670;37.596;2022-09-24T08:27:40;97780.56;;;10.31;100.00
51081;BME280;37130;55.670;37.596;2022-09-24T08:30:07;97774.66;;;10.28;100.00
51081;BME280;37130;55.670;37.596;2022-09-24T08:32:52;97774.53;;;10.29;100.00
51081;BME280;37130;55.670;37.596;2022-09-24T08:35:19;97783.75;;;10.24;100.00
51081;BME280;37130;55.670;37.596;2022-09-24T08:37:47;97775.56;;;10.27;100.00
51081;BME280;37130;55.670;37.596;2022-09-24T08:40:23;97770.47;;;10.37;100.00
51081;BME280;37130;55.670;37.596;2022-09-24T08:45:19;97769.16;;;10.42;100.00
51081;BME280;37130;55.670;37.596;2022-09-24T08:48:09;97769.03;;;10.44;100.00
51081;BME280;37130;55.670;37.596;2022-09-24T08:51:14;97764.22;;;10.38;100.00
51081;BME280;37130;55.670;37.596;2022-09-24T08:54:07;97759.78;;;10.38;100.00
51081;BME280;37130;55.670;37.596;2022-09-24T08:56:36;97768.06;;;10.45;100.00
51081;BME280;37130;55.670;37.596;2022-09-24T09:10:31;97746.81;;;10.69;100.00
51081;BME280;37130;55.670;37.596;2022-09-24T09:13:23;97748.25;;;10.73;100.00
51081;BME280;37130;55.670;37.596;2022-09-24T09:16:00;97753.69;;;10.83;100.00
51081;BME280;37130;55.670;37.596;2022-09-24T09:18:40;97750.78;;;10.86;100.00
51081;BME280;37130;55.670;37.596;2022-09-24T09:21:16;97750.78;;;10.86;100.00
51081;BME280;37130;55.670;37.596;2022-09-24T09:23:47;97751.75;;;10.85;100.00
51081;BME280;37130;55.670;37.596;2022-09-24T09:26:15;97742.00;;;10.85;100.00
51081;BME280;37130;55.670;37.596;2022-09-24T09:28:45;97737.19;;;10.90;100.00
51081;BME280;37130;55.670;37.596;2022-09-24T09:36:34;97735.63;;;10.88;100.00
51081;BME280;37130;55.670;37.596;2022-09-24T09:39:12;97733.47;;;10.93;100.00
51081;BME280;37130;55.670;37.596;2022-09-24T09:44:21;97727.44;;;11.13;100.00
51081;BME280;37130;55.670;37.596;2022-09-24T09:46:53;97730.41;;;11.20;100.00
51081;BME280;37130;55.670;37.596;2022-09-24T09:49:24;97729.31;;;11.23;100.00
51081;BME280;37130;55.670;37.596;2022-09-24T09:51:55;97714.41;;;11.22;100.00
51081;BME280;37130;55.670;37.596;2022-09-24T09:54:34;97715.56;;;11.29;100.00
51081;BME280;37130;55.670;37.596;2022-09-24T09:57:01;97717.13;;;11.31;100.00
51081;BME280;37130;55.670;37.596;2022-09-24T09:59:29;97710.03;;;11.32;100.00
51081;BME280;37130;55.670;37.596;2022-09-24T10:01:59;97714.63;;;11.30;100.00
51081;BME280;37130;55.670;37.596;2022-09-24T10:04:31;97708.47;;;11.29;100.00
51081;BME280;37130;55.670;37.596;2022-09-24T10:09:32;97711.59;;;11.34;100.00
51081;BME280;37130;55.670;37.596;2022-09-24T10:12:13;97706.53;;;11.31;100.00
51081;BME280;37130;55.670;37.596;2022-09-24T10:14:41;97702.94;;;11.32;100.00
51081;BME280;37130;55.670;37.596;2022-09-24T10:17:12;97712.69;;;11.32;100.00
51081;BME280;37130;55.670;37.596;2022-09-24T10:19:40;97712.44;;;11.35;100.00
51081;BME280;37130;55.670;37.596;2022-09-24T10:22:22;97707.72;;;11.38;100.00
51081;BME280;37130;55.670;37.596;2022-09-24T10:24:51;97711.34;;;11.37;100.00
51081;BME280;37130;55.670;37.596;2022-09-24T10:27:24;97705.69;;;11.31;100.00
51081;BME280;37130;55.670;37.596;2022-09-24T10:29:53;97704.84;;;11.30;100.00
51081;BME280;37130;55.670;37.596;2022-09-24T10:32:40;97706.31;;;11.34;100.00
51081;BME280;37130;55.670;37.596;2022-09-24T10:37:54;97708.78;;;11.47;100.00
51081;BME280;37130;55.670;37.596;2022-09-24T10:40:24;97703.00;;;11.53;100.00
51081;BME280;37130;55.670;37.596;2022-09-24T10:42:55;97699.81;;;11.59;100.00
51081;BME280;37130;55.670;37.596;2022-09-24T10:45:24;97700.16;;;11.66;100.00
51081;BME280;37130;55.670;37.596;2022-09-24T10:51:09;97694.00;;;11.66;100.00
51081;BME280;37130;55.670;37.596;2022-09-24T10:53:38;97702.34;;;11.61;100.00
51081;BME280;37130;55.670;37.596;2022-09-24T10:56:20;97701.00;;;11.67;100.00
51081;BME280;37130;55.670;37.596;2022-09-24T11:04:42;97691.50;;;11.96;100.00
51081;BME280;37130;55.670;37.596;2022-09-24T11:09:52;97690.38;;;11.99;100.00
51081;BME280;37130;55.670;37.596;2022-09-24T11:18:30;97692.63;;;11.82;100.00
51081;BME280;37130;55.670;37.596;2022-09-24T11:20:29;97680.06;;;11.84;100.00
51081;BME280;37130;55.670;37.596;2022-09-24T11:37:07;97678.03;;;12.09;100.00
51081;BME280;37130;55.670;37.596;2022-09-24T11:39:46;97674.63;;;12.18;100.00
51081;BME280;37130;55.670;37.596;2022-09-24T11:44:51;97672.00;;;12.07;100.00
51081;BME280;37130;55.670;37.596;2022-09-24T11:50:01;97669.69;;;11.93;100.00
51081;BME280;37130;55.670;37.596;2022-09-24T11:52:39;97655.34;;;11.84;100.00
51081;BME280;37130;55.670;37.596;2022-09-24T11:55:17;97664.53;;;11.80;100.00
51081;BME280;37130;55.670;37.596;2022-09-24T11:58:09;97661.97;;;11.69;100.00
51081;BME280;37130;55.670;37.596;2022-09-24T12:00:45;97657.97;;;11.63;100.00
51081;BME280;37130;55.670;37.596;2022-09-24T12:03:25;97660.16;;;11.58;100.00
51081;BME280;37130;55.670;37.596;2022-09-24T12:06:10;97662.38;;;11.53;100.00
51081;BME280;37130;55.670;37.596;2022-09-24T12:08:42;97657.81;;;11.44;100.00
51081;BME280;37130;55.670;37.596;2022-09-24T12:14:02;97654.59;;;11.40;100.00
51081;BME280;37130;55.670;37.596;2022-09-24T12:16:32;97650.25;;;11.39;100.00
51081;BME280;37130;55.670;37.596;2022-09-24T12:21:40;97650.00;;;11.42;100.00
51081;BME280;37130;55.670;37.596;2022-09-24T12:24:13;97651.09;;;11.39;100.00
51081;BME280;37130;55.670;37.596;2022-09-24T12:26:43;97644.69;;;11.42;100.00
51081;BME280;37130;55.670;37.596;2022-09-24T12:32:12;97642.66;;;11.46;100.00
51081;BME280;37130;55.670;37.596;2022-09-24T12:35:11;97644.06;;;11.50;100.00
51081;BME280;37130;55.670;37.596;2022-09-24T12:37:45;97647.13;;;11.45;100.00
51081;BME280;37130;55.670;37.596;2022-09-24T12:40:17;97639.53;;;11.40;100.00
51081;BME280;37130;55.670;37.596;2022-09-24T12:42:53;97640.88;;;11.35;100.00
51081;BME280;37130;55.670;37.596;2022-09-24T12:45:24;97644.03;;;11.29;100.00
51081;BME280;37130;55.670;37.596;2022-09-24T12:47:53;97637.03;;;11.28;100.00
51081;BME280;37130;55.670;37.596;2022-09-24T12:50:25;97637.41;;;11.23;100.00
51081;BME280;37130;55.670;37.596;2022-09-24T12:52:53;97638.97;;;11.26;100.00
51081;BME280;37130;55.670;37.596;2022-09-24T12:55:24;97631.75;;;11.28;100.00
51081;BME280;37130;55.670;37.596;2022-09-24T13:02:59;97633.94;;;11.23;100.00
51081;BME280;37130;55.670;37.596;2022-09-24T13:05:31;97633.94;;;11.23;100.00
51081;BME280;37130;55.670;37.596;2022-09-24T13:08:00;97638.66;;;11.19;100.00
51081;BME280;37130;55.670;37.596;2022-09-24T13:10:29;97637.09;;;11.16;100.00
51081;BME280;37130;55.670;37.596;2022-09-24T13:12:57;97633.72;;;11.14;100.00
51081;BME280;37130;55.670;37.596;2022-09-24T13:18:00;97631.41;;;11.21;100.00
51081;BME280;37130;55.670;37.596;2022-09-24T13:20:30;97633.34;;;11.19;100.00
51081;BME280;37130;55.670;37.596;2022-09-24T13:26:05;97633.97;;;11.11;100.00
51081;BME280;37130;55.670;37.596;2022-09-24T13:33:51;97641.09;;;11.11;100.00
51081;BME280;37130;55.670;37.596;2022-09-24T13:36:28;97645.53;;;11.10;100.00
51081;BME280;37130;55.670;37.596;2022-09-24T13:41:52;97633.50;;;11.06;100.00
51081;BME280;37130;55.670;37.596;2022-09-24T13:47:32;97644.56;;;11.00;100.00
51081;BME280;37130;55.670;37.596;2022-09-24T13:49:50;97642.06;;;10.99;100.00
51081;BME280;37130;55.670;37.596;2022-09-24T13:55:38;97633.16;;;11.00;100.00
51081;BME280;37130;55.670;37.596;2022-09-24T13:57:58;97628.47;;;11.03;100.00
51081;BME280;37130;55.670;37.596;2022-09-24T14:00:26;97622.06;;;11.06;100.00
51081;BME280;37130;55.670;37.596;2022-09-24T14:02:55;97619.53;;;11.04;100.00
51081;BME280;37130;55.670;37.596;2022-09-24T14:05:24;97623.75;;;11.07;100.00
51081;BME280;37130;55.670;37.596;2022-09-24T14:07:57;97623.50;;;11.10;100.00
51081;BME280;37130;55.670;37.596;2022-09-24T14:10:27;97621.69;;;11.10;100.00
51081;BME280;37130;55.670;37.596;2022-09-24T14:13:00;97626.03;;;11.11;100.00
51081;BME280;37130;55.670;37.596;2022-09-24T14:15:28;97620.00;;;11.09;100.00
51081;BME280;37130;55.670;37.596;2022-09-24T14:17:56;97618.34;;;11.08;100.00
51081;BME280;37130;55.670;37.596;2022-09-24T14:20:24;97613.16;;;11.07;100.00
51081;BME280;37130;55.670;37.596;2022-09-24T14:22:54;97609.91;;;11.03;100.00
51081;BME280;37130;55.670;37.596;2022-09-24T14:25:27;97611.13;;;10.99;100.00
51081;BME280;37130;55.670;37.596;2022-09-24T14:27:56;97614.28;;;10.93;100.00
51081;BME280;37130;55.670;37.596;2022-09-24T14:30:25;97618.13;;;10.89;100.00
51081;BME280;37130;55.670;37.596;2022-09-24T14:32:56;97625.34;;;10.87;100.00
51081;BME280;37130;55.670;37.596;2022-09-24T14:35:31;97621.28;;;10.83;100.00
51081;BME280;37130;55.670;37.596;2022-09-24T14:38:03;97614.28;;;10.82;100.00
51081;BME280;37130;55.670;37.596;2022-09-24T14:40:39;97608.28;;;10.80;100.00
51081;BME280;37130;55.670;37.596;2022-09-24T14:44:12;97610.69;;;10.83;100.00
51081;BME280;37130;55.670;37.596;2022-09-24T14:46:13;97616.09;;;10.81;100.00
51081;BME280;37130;55.670;37.596;2022-09-24T14:48:43;97619.72;;;10.80;100.00
51081;BME280;37130;55.670;37.596;2022-09-24T14:51:29;97616.34;;;10.78;100.00
51081;BME280;37130;55.670;37.596;2022-09-24T14:53:58;97619.00;;;10.78;100.00
51081;BME280;37130;55.670;37.596;2022-09-24T14:56:27;97615.38;;;10.79;100.00
51081;BME280;37130;55.670;37.596;2022-09-24T14:58:55;97618.88;;;10.80;100.00
51081;BME280;37130;55.670;37.596;2022-09-24T15:01:23;97611.88;;;10.79;100.00
51081;BME280;37130;55.670;37.596;2022-09-24T15:03:52;97606.00;;;10.75;100.00